createdAt,value
2023-05-18T00:01:07.888Z,6.25
2023-05-18T00:03:42.202Z,6.18
2023-05-18T00:06:14.723Z,7.97
2023-05-18T00:08:46.971Z,6.75
2023-05-18T00:11:19.192Z,7.38
2023-05-18T00:13:52.159Z,6.95
2023-05-18T00:16:24.541Z,7.03
2023-05-18T00:18:56.895Z,7.03
2023-05-18T00:21:30.895Z,7.03
2023-05-18T00:24:03.297Z,6.88
2023-05-18T00:26:35.776Z,6.75
2023-05-18T00:29:08.451Z,6.43
2023-05-18T00:31:42.431Z,7.50
2023-05-18T00:34:16.243Z,6.75
2023-05-18T00:36:51.725Z,7.47
2023-05-18T00:39:29.051Z,6.43
2023-05-18T00:42:01.348Z,6.90
2023-05-18T00:44:33.728Z,7.28
2023-05-18T00:47:06.087Z,6.90
2023-05-18T00:49:38.390Z,7.60
2023-05-18T00:52:10.730Z,7.20
2023-05-18T00:54:43.675Z,6.72
2023-05-18T00:57:16.467Z,6.70
2023-05-18T00:59:50.514Z,6.93
2023-05-18T01:04:55.035Z,6.25
2023-05-18T01:07:28.476Z,7.88
2023-05-18T01:10:00.711Z,7.45
2023-05-18T01:12:34.888Z,7.15
2023-05-18T01:15:18.182Z,7.70
2023-05-18T01:18:05.262Z,8.20
2023-05-18T01:20:59.748Z,7.68
2023-05-18T01:24:03.932Z,7.90
2023-05-18T01:26:41.462Z,8.55
2023-05-18T01:29:15.626Z,8.30
2023-05-18T01:31:47.738Z,8.60
2023-05-18T01:34:20.628Z,7.57
2023-05-18T01:36:52.757Z,8.27
2023-05-18T01:42:06.093Z,7.25
2023-05-18T01:44:45.651Z,7.60
2023-05-18T01:47:18.466Z,8.35
2023-05-18T01:50:13.390Z,7.10
2023-05-18T01:52:53.183Z,7.60
2023-05-18T01:55:29.994Z,7.72
2023-05-18T01:58:05.098Z,7.28
2023-05-18T02:00:38.005Z,8.73
2023-05-18T02:03:12.674Z,7.87
2023-05-18T02:05:44.895Z,8.55
2023-05-18T02:08:17.781Z,7.97
2023-05-18T02:10:50.274Z,7.90
2023-05-18T02:13:22.587Z,8.15
2023-05-18T02:15:54.935Z,8.23
2023-05-18T02:18:27.085Z,8.85
2023-05-18T02:21:00.224Z,8.63
2023-05-18T02:23:32.348Z,8.38
2023-05-18T02:26:04.441Z,8.80
2023-05-18T02:28:40.515Z,8.02
2023-05-18T02:31:13.017Z,8.77
2023-05-18T02:33:45.147Z,9.50
2023-05-18T02:36:18.850Z,9.07
2023-05-18T02:38:51.301Z,9.10
2023-05-18T02:41:23.586Z,9.85
2023-05-18T02:43:55.797Z,10.27
2023-05-18T02:46:28.292Z,10.80
2023-05-18T02:49:01.150Z,10.32
2023-05-18T02:51:33.717Z,11.35
2023-05-18T02:54:07.328Z,9.75
2023-05-18T02:56:45.279Z,10.60
2023-05-18T02:59:28.496Z,9.98
2023-05-18T03:02:00.690Z,10.13
2023-05-18T03:04:33.008Z,10.57
2023-05-18T03:07:05.340Z,10.02
2023-05-18T03:09:38.498Z,9.65
2023-05-18T03:12:11.077Z,10.63
2023-05-18T03:14:43.199Z,10.27
2023-05-18T03:17:15.428Z,10.38
2023-05-18T03:19:47.651Z,10.75
2023-05-18T03:22:19.890Z,9.63
2023-05-18T03:24:55.645Z,10.93
2023-05-18T03:27:28.395Z,12.00
2023-05-18T03:30:01.810Z,11.95
2023-05-18T03:32:37.432Z,11.20
2023-05-18T03:35:10.061Z,11.65
2023-05-18T03:37:42.789Z,11.65
2023-05-18T03:40:16.503Z,12.40
2023-05-18T03:42:50.401Z,11.25
2023-05-18T03:45:22.631Z,11.68
2023-05-18T03:47:55.273Z,10.80
2023-05-18T03:50:29.738Z,12.40
2023-05-18T03:53:03.257Z,12.32
2023-05-18T03:55:35.669Z,11.85
2023-05-18T03:58:07.836Z,12.55
2023-05-18T04:00:43.073Z,12.20
2023-05-18T04:03:15.637Z,12.23
2023-05-18T04:05:49.936Z,11.52
2023-05-18T04:08:25.771Z,11.68
2023-05-18T04:10:58.025Z,12.38
2023-05-18T04:13:30.766Z,10.90
2023-05-18T04:16:03.854Z,12.53
2023-05-18T04:18:36.520Z,12.63
2023-05-18T04:21:09.165Z,11.57
2023-05-18T04:23:41.238Z,12.35
2023-05-18T04:26:20.177Z,12.27
2023-05-18T04:28:53.078Z,11.25
2023-05-18T04:31:26.892Z,11.35
2023-05-18T04:34:00.721Z,12.25
2023-05-18T04:36:32.833Z,11.50
2023-05-18T04:39:07.984Z,12.20
2023-05-18T04:41:42.420Z,12.80
2023-05-18T04:44:15.941Z,11.75
2023-05-18T04:46:48.079Z,11.60
2023-05-18T04:49:23.912Z,11.43
2023-05-18T04:51:56.815Z,11.60
2023-05-18T04:54:31.108Z,10.63
2023-05-18T04:57:03.774Z,10.90
2023-05-18T04:59:37.234Z,11.30
2023-05-18T05:02:10.243Z,10.82
2023-05-18T05:04:42.490Z,9.98
2023-05-18T05:07:15.180Z,10.68
2023-05-18T05:09:50.375Z,9.43
2023-05-18T05:12:22.980Z,10.30
2023-05-18T05:14:55.156Z,8.95
2023-05-18T05:17:27.664Z,10.07
2023-05-18T05:19:59.939Z,8.68
2023-05-18T05:22:32.914Z,8.82
2023-05-18T05:25:07.017Z,9.40
2023-05-18T05:27:40.324Z,8.70
2023-05-18T05:30:12.857Z,8.30
2023-05-18T05:32:47.117Z,8.40
2023-05-18T05:35:19.552Z,8.38
2023-05-18T05:37:53.029Z,8.13
2023-05-18T05:40:26.488Z,8.30
2023-05-18T05:42:59.738Z,8.13
2023-05-18T05:45:32.513Z,8.07
2023-05-18T05:48:08.243Z,7.25
2023-05-18T05:50:40.955Z,7.25
2023-05-18T05:53:13.626Z,7.68
2023-05-18T05:55:47.004Z,7.67
2023-05-18T05:58:21.807Z,7.88
2023-05-18T06:00:58.630Z,7.53
2023-05-18T06:03:33.652Z,7.90
2023-05-18T06:06:10.540Z,7.13
2023-05-18T06:08:43.487Z,6.97
2023-05-18T06:11:15.696Z,7.40
2023-05-18T06:13:47.995Z,7.15
2023-05-18T06:16:20.297Z,7.22
2023-05-18T06:18:53.148Z,7.07
2023-05-18T06:21:25.876Z,7.43
2023-05-18T06:23:58.280Z,7.63
2023-05-18T06:26:49.608Z,7.22
2023-05-18T06:29:41.486Z,6.85
2023-05-18T06:32:20.442Z,6.45
2023-05-18T06:34:58.748Z,6.60
2023-05-18T06:37:30.969Z,6.18
2023-05-18T06:40:05.012Z,6.10
2023-05-18T06:42:37.689Z,5.95
2023-05-18T06:45:29.375Z,6.20
2023-05-18T06:48:13.755Z,5.80
2023-05-18T06:50:46.489Z,6.03
2023-05-18T06:53:19.023Z,5.78
2023-05-18T06:55:51.376Z,5.07
2023-05-18T06:58:23.597Z,5.15
2023-05-18T07:00:56.962Z,5.15
2023-05-18T07:03:30.188Z,5.72
2023-05-18T07:06:04.848Z,5.65
2023-05-18T07:08:40.819Z,5.90
2023-05-18T07:11:13.088Z,6.00
2023-05-18T07:13:45.331Z,4.80
2023-05-18T07:16:17.639Z,5.47
2023-05-18T07:18:49.920Z,4.97
2023-05-18T07:21:22.067Z,5.07
2023-05-18T07:23:54.461Z,5.68
2023-05-18T07:26:27.194Z,5.43
2023-05-18T07:28:59.497Z,5.32
2023-05-18T07:31:33.648Z,5.53
2023-05-18T07:34:05.860Z,5.28
2023-05-18T07:36:38.488Z,4.60
2023-05-18T07:39:19.294Z,4.72
2023-05-18T07:41:51.858Z,4.68
2023-05-18T07:44:24.666Z,4.18
2023-05-18T07:46:57.095Z,4.80
2023-05-18T07:49:29.358Z,5.05
2023-05-18T07:52:02.734Z,4.22
2023-05-18T07:54:35.202Z,4.15
2023-05-18T07:57:07.390Z,4.45
2023-05-18T07:59:39.711Z,4.15
2023-05-18T08:02:11.887Z,4.47
2023-05-18T08:04:44.600Z,4.18
2023-05-18T08:07:18.666Z,4.43
2023-05-18T08:09:50.982Z,4.82
2023-05-18T08:12:23.492Z,4.53
2023-05-18T08:14:56.678Z,5.65
2023-05-18T08:17:28.798Z,4.95
2023-05-18T08:20:03.437Z,5.05
2023-05-18T08:22:35.781Z,5.07
2023-05-18T08:25:10.356Z,4.55
2023-05-18T08:27:45.293Z,5.07
2023-05-18T08:30:21.998Z,4.72
2023-05-18T08:32:54.268Z,5.40
2023-05-18T08:35:26.856Z,5.60
2023-05-18T08:37:59.285Z,6.45
2023-05-18T08:40:43.467Z,6.00
2023-05-18T08:43:23.441Z,5.68
2023-05-18T08:46:04.724Z,4.95
2023-05-18T08:48:37.995Z,5.22
2023-05-18T08:51:11.300Z,5.10
2023-05-18T08:53:44.632Z,5.17
2023-05-18T08:56:17.285Z,5.30
2023-05-18T08:58:54.760Z,4.60
2023-05-18T09:01:31.507Z,4.72
2023-05-18T09:04:04.523Z,5.00
2023-05-18T09:06:37.550Z,5.10
2023-05-18T09:09:10.756Z,5.35
2023-05-18T09:11:44.540Z,5.30
2023-05-18T09:14:16.987Z,5.47
2023-05-18T09:16:49.269Z,5.65
2023-05-18T09:19:21.748Z,6.40
2023-05-18T09:21:54.025Z,5.00
2023-05-18T09:24:27.216Z,4.97
2023-05-18T09:26:59.859Z,5.30
2023-05-18T09:29:33.602Z,5.97
2023-05-18T09:32:12.050Z,4.55
2023-05-18T09:34:45.648Z,5.05
2023-05-18T09:40:05.747Z,5.75
2023-05-18T09:42:40.202Z,5.35
2023-05-18T09:45:18.162Z,5.68
2023-05-18T09:47:51.419Z,5.13
2023-05-18T09:50:24.627Z,5.47
2023-05-18T09:52:57.926Z,5.20
2023-05-18T09:55:30.949Z,5.53
2023-05-18T09:58:04.900Z,5.38
2023-05-18T10:00:40.869Z,5.80
2023-05-18T10:03:24.120Z,6.30
2023-05-18T10:05:56.388Z,5.72
2023-05-18T10:08:28.482Z,5.60
2023-05-18T10:11:01.071Z,5.68
2023-05-18T10:13:34.804Z,5.65
2023-05-18T10:16:08.390Z,5.90
2023-05-18T10:18:42.268Z,5.88
2023-05-18T10:21:15.942Z,5.50
2023-05-18T10:23:51.185Z,5.30
2023-05-18T10:26:28.904Z,4.80
2023-05-18T10:29:02.456Z,4.90
2023-05-18T10:31:37.537Z,5.50
2023-05-18T10:34:11.648Z,5.15
2023-05-18T10:36:43.831Z,4.80
2023-05-18T10:39:17.633Z,5.00
2023-05-18T10:41:54.747Z,5.65
2023-05-18T10:44:27.465Z,5.82
2023-05-18T10:46:59.955Z,5.40
2023-05-18T10:49:33.152Z,6.40
2023-05-18T10:52:07.705Z,6.55
2023-05-18T10:54:42.279Z,5.00
2023-05-18T10:57:18.797Z,5.00
2023-05-18T10:59:51.196Z,5.22
2023-05-18T11:02:24.342Z,5.13
2023-05-18T11:04:57.466Z,5.10
2023-05-18T11:07:31.453Z,4.65
2023-05-18T11:10:08.828Z,4.50
2023-05-18T11:12:41.853Z,4.60
2023-05-18T11:15:14.064Z,5.65
2023-05-18T11:17:46.507Z,4.80
2023-05-18T11:20:25.187Z,4.28
2023-05-18T11:23:00.326Z,4.45
2023-05-18T11:25:33.023Z,4.20
2023-05-18T11:28:08.393Z,4.87
2023-05-18T11:30:40.806Z,4.30
2023-05-18T11:33:17.773Z,4.40
2023-05-18T11:36:08.815Z,4.40
2023-05-18T11:38:55.690Z,4.55
2023-05-18T11:41:31.976Z,3.97
2023-05-18T11:44:15.333Z,3.88
2023-05-18T11:47:02.426Z,4.45
2023-05-18T11:49:47.696Z,4.25
2023-05-18T11:52:20.948Z,4.88
2023-05-18T11:54:54.735Z,4.63
2023-05-18T11:57:38.424Z,4.03
2023-05-18T12:00:16.805Z,3.60
2023-05-18T12:02:49.626Z,4.03
2023-05-18T12:05:22.706Z,3.60
2023-05-18T12:07:55.238Z,3.80
2023-05-18T12:10:27.531Z,3.10
2023-05-18T12:13:01.245Z,3.72
2023-05-18T12:15:35.395Z,4.53
2023-05-18T12:18:07.518Z,4.28
2023-05-18T12:20:41.452Z,4.20
2023-05-18T12:23:14.429Z,4.57
2023-05-18T12:25:51.223Z,3.92
2023-05-18T12:28:23.812Z,4.40
2023-05-18T12:30:57.065Z,4.97
2023-05-18T12:36:01.398Z,3.88
2023-05-18T12:38:34.531Z,3.70
2023-05-18T12:41:07.060Z,3.97
2023-05-18T12:43:40.738Z,3.83
2023-05-18T12:46:12.985Z,3.88
2023-05-18T12:48:55.848Z,3.90
2023-05-18T12:51:35.619Z,4.07
2023-05-18T12:54:09.981Z,3.58
2023-05-18T12:57:02.683Z,3.80
2023-05-18T12:59:34.795Z,3.70
2023-05-18T13:02:07.416Z,3.42
2023-05-18T13:04:39.518Z,3.50
2023-05-18T13:07:12.694Z,3.40
2023-05-18T13:09:48.235Z,4.13
2023-05-18T13:12:36.383Z,3.50
2023-05-18T13:15:13.840Z,3.50
2023-05-18T13:18:06.936Z,3.90
2023-05-18T13:20:51.531Z,4.20
2023-05-18T13:23:31.225Z,4.00
2023-05-18T13:26:03.815Z,4.50
2023-05-18T13:28:36.537Z,3.90
2023-05-18T13:31:10.532Z,4.30
2023-05-18T13:33:44.683Z,4.55
2023-05-18T13:36:18.321Z,3.83
2023-05-18T13:41:22.525Z,4.18
2023-05-18T13:43:54.605Z,4.15
2023-05-18T13:46:26.740Z,3.97
2023-05-18T13:48:58.817Z,4.03
2023-05-18T13:51:31.981Z,4.50
2023-05-18T13:54:04.242Z,3.65
2023-05-18T13:56:36.587Z,3.53
2023-05-18T13:59:08.652Z,3.85
2023-05-18T14:01:42.553Z,3.13
2023-05-18T14:04:14.900Z,3.80
2023-05-18T14:06:47.000Z,3.88
2023-05-18T14:09:19.054Z,4.20
2023-05-18T14:11:53.557Z,3.95
2023-05-18T14:14:26.440Z,3.80
2023-05-18T14:16:59.668Z,3.40
2023-05-18T14:19:31.782Z,3.38
2023-05-18T14:22:04.003Z,3.10
2023-05-18T14:24:36.044Z,3.90
2023-05-18T14:27:08.145Z,3.28
2023-05-18T14:29:40.282Z,2.83
2023-05-18T14:32:12.340Z,2.90
2023-05-18T14:34:44.914Z,2.95
2023-05-18T14:37:16.937Z,3.85
2023-05-18T14:39:49.144Z,2.80
2023-05-18T14:42:21.268Z,3.20
2023-05-18T14:44:53.501Z,2.58
2023-05-18T14:47:25.682Z,3.35
2023-05-18T14:49:57.800Z,3.30
2023-05-18T14:52:29.859Z,3.65
2023-05-18T14:55:01.883Z,3.75
2023-05-18T14:57:33.984Z,3.25
2023-05-18T15:00:06.829Z,2.80
2023-05-18T15:02:39.053Z,3.55
2023-05-18T15:05:11.650Z,2.42
2023-05-18T15:07:43.737Z,2.85
2023-05-18T15:10:15.954Z,3.47
2023-05-18T15:12:47.973Z,2.70
2023-05-18T15:15:21.424Z,2.50
2023-05-18T15:17:54.004Z,2.72
2023-05-18T15:20:27.380Z,2.58
2023-05-18T15:25:32.782Z,2.35
2023-05-18T15:28:06.068Z,2.83
2023-05-18T15:30:38.444Z,2.95
2023-05-18T15:33:11.081Z,2.47
2023-05-18T15:35:43.634Z,4.40
2023-05-18T15:38:16.288Z,2.90
2023-05-18T15:40:48.420Z,4.63
2023-05-18T15:43:21.580Z,4.55
2023-05-18T15:45:54.019Z,3.05
2023-05-18T15:48:26.440Z,3.80
2023-05-18T15:50:58.930Z,3.60
2023-05-18T15:53:31.607Z,3.90
2023-05-18T15:56:04.097Z,3.88
2023-05-18T15:58:36.515Z,3.35
2023-05-18T16:01:08.727Z,3.33
2023-05-18T16:03:41.171Z,3.30
2023-05-18T16:06:13.713Z,4.20
2023-05-18T16:08:46.951Z,3.53
2023-05-18T16:11:19.015Z,3.47
2023-05-18T16:13:56.047Z,2.80
2023-05-18T16:16:29.201Z,2.50
2023-05-18T16:19:02.569Z,2.58
2023-05-18T16:21:35.272Z,2.58
2023-05-18T16:24:07.795Z,2.58
2023-05-18T16:26:40.260Z,2.80
2023-05-18T16:29:12.596Z,2.72
2023-05-18T16:31:44.824Z,2.50
2023-05-18T16:34:17.213Z,2.42
2023-05-18T16:36:49.349Z,2.40
2023-05-18T16:39:21.512Z,2.70
2023-05-18T16:41:53.507Z,2.60
2023-05-18T16:44:25.608Z,2.47
2023-05-18T16:46:57.986Z,2.67
2023-05-18T16:49:31.053Z,2.60
2023-05-18T16:52:03.796Z,3.10
2023-05-18T16:54:36.559Z,2.30
2023-05-18T16:57:13.309Z,2.88
2023-05-18T16:59:45.732Z,2.70
2023-05-18T17:02:18.372Z,2.90
2023-05-18T17:04:50.648Z,2.73
2023-05-18T17:07:23.222Z,2.80
2023-05-18T17:09:55.467Z,2.60
2023-05-18T17:12:27.626Z,2.60
2023-05-18T17:15:03.012Z,2.80
2023-05-18T17:17:35.091Z,2.63
2023-05-18T17:20:09.239Z,2.88
2023-05-18T17:22:41.330Z,2.58
2023-05-18T17:25:14.160Z,2.53
2023-05-18T17:27:46.320Z,2.42
2023-05-18T17:30:18.886Z,2.70
2023-05-18T17:32:51.176Z,2.28
2023-05-18T17:35:23.324Z,2.45
2023-05-18T17:37:56.075Z,2.40
2023-05-18T17:40:28.225Z,2.27
2023-05-18T17:43:00.777Z,2.60
2023-05-18T17:45:33.019Z,3.20
2023-05-18T17:48:05.602Z,2.40
2023-05-18T17:50:37.995Z,3.08
2023-05-18T17:53:10.917Z,2.30
2023-05-18T17:55:43.081Z,2.60
2023-05-18T17:58:15.496Z,2.50
2023-05-18T18:00:47.900Z,2.60
2023-05-18T18:03:21.932Z,2.45
2023-05-18T18:05:54.194Z,2.53
2023-05-18T18:08:28.492Z,2.47
2023-05-18T18:11:00.872Z,2.33
2023-05-18T18:13:33.640Z,3.22
2023-05-18T18:16:06.432Z,2.73
2023-05-18T18:18:39.397Z,2.50
2023-05-18T18:21:12.340Z,2.58
2023-05-18T18:23:45.479Z,2.53
2023-05-18T18:26:17.932Z,2.78
2023-05-18T18:28:51.392Z,2.33
2023-05-18T18:31:23.665Z,2.80
2023-05-18T18:33:56.906Z,3.10
2023-05-18T18:36:29.202Z,2.63
2023-05-18T18:39:01.401Z,2.92
2023-05-18T18:41:33.812Z,2.83
2023-05-18T18:44:06.034Z,3.03
2023-05-18T18:46:38.293Z,3.20
2023-05-18T18:49:10.591Z,2.50
2023-05-18T18:51:42.770Z,2.90
2023-05-18T18:54:15.267Z,3.05
2023-05-18T18:56:47.438Z,3.20
2023-05-18T18:59:19.648Z,2.85
2023-05-18T19:01:51.905Z,3.10
2023-05-18T19:04:24.126Z,2.80
2023-05-18T19:06:56.761Z,3.30
2023-05-18T19:09:32.790Z,3.30
2023-05-18T19:12:05.310Z,3.33
2023-05-18T19:14:37.678Z,2.85
2023-05-18T19:17:10.324Z,2.92
2023-05-18T19:19:43.321Z,3.15
2023-05-18T19:22:18.738Z,3.10
2023-05-18T19:24:51.127Z,3.17
2023-05-18T19:27:23.587Z,4.13
2023-05-18T19:29:56.578Z,3.30
2023-05-18T19:32:28.830Z,3.37
2023-05-18T19:35:01.074Z,3.78
2023-05-18T19:37:33.258Z,4.10
2023-05-18T19:40:07.143Z,3.70
2023-05-18T19:42:39.337Z,3.13
2023-05-18T19:45:11.783Z,2.97
2023-05-18T19:47:44.368Z,3.08
2023-05-18T19:50:16.929Z,2.85
2023-05-18T19:52:50.564Z,3.80
2023-05-18T19:55:23.264Z,3.95
2023-05-18T19:57:55.663Z,3.55
2023-05-18T20:00:29.699Z,3.00
2023-05-18T20:03:04.965Z,2.90
2023-05-18T20:05:37.418Z,2.85
2023-05-18T20:08:10.717Z,2.40
2023-05-18T20:13:17.373Z,2.88
2023-05-18T20:15:51.700Z,3.20
2023-05-18T20:18:26.150Z,2.90
2023-05-18T20:20:59.392Z,2.72
2023-05-18T20:23:31.552Z,2.85
2023-05-18T20:26:03.805Z,2.92
2023-05-18T20:28:36.703Z,2.97
2023-05-18T20:31:10.844Z,3.60
2023-05-18T20:33:44.646Z,2.90
2023-05-18T20:36:17.590Z,3.00
2023-05-18T20:38:49.942Z,3.65
2023-05-18T20:41:23.666Z,3.53
2023-05-18T20:43:56.048Z,3.40
2023-05-18T20:46:31.313Z,3.38
2023-05-18T20:49:04.519Z,3.20
2023-05-18T20:51:36.655Z,3.40
2023-05-18T20:54:08.789Z,3.30
2023-05-18T20:56:40.892Z,2.72
2023-05-18T20:59:13.082Z,3.67
2023-05-18T21:01:48.308Z,3.50
2023-05-18T21:04:20.793Z,3.65
2023-05-18T21:06:53.134Z,3.55
2023-05-18T21:09:25.763Z,3.67
2023-05-18T21:11:58.616Z,4.18
2023-05-18T21:14:30.796Z,3.67
2023-05-18T21:17:03.002Z,3.63
2023-05-18T21:19:35.613Z,4.10
2023-05-18T21:22:08.032Z,4.22
2023-05-18T21:24:40.567Z,4.57
2023-05-18T21:27:12.766Z,5.20
2023-05-18T21:29:45.772Z,4.30
2023-05-18T21:32:17.897Z,4.70
2023-05-18T21:34:50.298Z,4.88
2023-05-18T21:37:23.376Z,4.63
2023-05-18T21:39:55.489Z,4.85
2023-05-18T21:42:27.587Z,4.60
2023-05-18T21:44:59.826Z,5.20
2023-05-18T21:47:32.048Z,4.82
2023-05-18T21:50:05.169Z,4.97
2023-05-18T21:52:37.711Z,5.68
2023-05-18T21:55:10.357Z,5.70
2023-05-18T21:57:42.579Z,5.20
2023-05-18T22:00:17.525Z,5.20
2023-05-18T22:02:49.786Z,5.57
2023-05-18T22:05:22.284Z,6.27
2023-05-18T22:07:55.119Z,5.03
2023-05-18T22:10:27.246Z,4.88
2023-05-18T22:12:59.922Z,5.80
2023-05-18T22:15:33.025Z,5.00
2023-05-18T22:18:06.570Z,5.50
2023-05-18T22:20:39.168Z,5.90
2023-05-18T22:23:11.714Z,5.65
2023-05-18T22:25:43.869Z,5.20
2023-05-18T22:28:21.171Z,6.57
2023-05-18T22:30:53.552Z,5.88
2023-05-18T22:33:25.905Z,5.70
2023-05-18T22:35:58.107Z,6.10
2023-05-18T22:38:30.306Z,6.28
2023-05-18T22:41:02.488Z,5.90
2023-05-18T22:43:34.554Z,6.75
2023-05-18T22:46:07.459Z,6.47
2023-05-18T22:48:39.874Z,6.20
2023-05-18T22:51:12.622Z,6.80
2023-05-18T22:53:44.758Z,5.45
2023-05-18T22:56:22.027Z,6.32
2023-05-18T22:58:54.185Z,6.55
2023-05-18T23:01:26.358Z,6.97
2023-05-18T23:03:58.656Z,6.97
2023-05-18T23:06:31.878Z,7.13
2023-05-18T23:09:04.793Z,6.95
2023-05-18T23:11:37.100Z,7.18
2023-05-18T23:14:10.124Z,7.03
2023-05-18T23:16:42.932Z,7.65
2023-05-18T23:19:18.565Z,7.38
2023-05-18T23:21:50.780Z,7.05
2023-05-18T23:24:23.429Z,6.78
2023-05-18T23:26:58.485Z,7.72
2023-05-18T23:29:30.667Z,7.30
2023-05-18T23:32:06.614Z,6.85
2023-05-18T23:34:42.828Z,7.03
2023-05-18T23:37:18.507Z,6.68
2023-05-18T23:39:54.386Z,7.10
2023-05-18T23:42:26.691Z,6.32
2023-05-18T23:44:59.144Z,6.82
2023-05-18T23:47:32.036Z,7.07
2023-05-18T23:50:04.932Z,6.22
2023-05-18T23:52:38.188Z,8.00
2023-05-18T23:55:11.645Z,7.18
2023-05-18T23:57:44.735Z,6.72
